Kuwait City, Kuwait
Current Conditions -  °F | °C
As of 7:00 PM on Thursday 23 Oct 2014 (Local Time) from OKBK Reporting Station
Clear Clear  
Wind Chill: 81°   Ceiling: Unl
Heat Index: 81°   Visibility: 6mi
Dew Point: 45°   Wind: 3mph
Humidity: 28%   Direction: 30°NNE
Pressure: 30"   Gusts: NA
Location:  29.22°N, 47.98°E
Report Text: OKBK 231600Z 03003KT CAVOK 27/07 Q1016 NOSIG
Loading
Personal Weather Stations






























Interactive Weather Map New forecast layout! Learn more

10-Day Weather Forecast

Advertisements
Track Severe Weather on mobile